sensor_id;sensor_type;location;lat;lon;timestamp;P1;durP1;ratioP1;P2;durP2;ratioP2
11267;SDS011;49397;47.474;9.416;2023-06-22T00:00:45;10.20;;;5.40;;
11267;SDS011;49397;47.474;9.416;2023-06-22T00:03:10;8.63;;;5.47;;
11267;SDS011;49397;47.474;9.416;2023-06-22T00:05:36;7.77;;;5.27;;
11267;SDS011;49397;47.474;9.416;2023-06-22T00:08:04;13.23;;;5.03;;
11267;SDS011;49397;47.474;9.416;2023-06-22T00:10:30;9.37;;;5.60;;
11267;SDS011;49397;47.474;9.416;2023-06-22T00:12:56;7.43;;;4.70;;
11267;SDS011;49397;47.474;9.416;2023-06-22T00:15:21;7.17;;;5.00;;
11267;SDS011;49397;47.474;9.416;2023-06-22T00:17:47;7.37;;;5.63;;
11267;SDS011;49397;47.474;9.416;2023-06-22T00:20:12;8.30;;;5.70;;
11267;SDS011;49397;47.474;9.416;2023-06-22T00:22:39;11.10;;;5.37;;
11267;SDS011;49397;47.474;9.416;2023-06-22T00:25:08;8.03;;;5.53;;
11267;SDS011;49397;47.474;9.416;2023-06-22T00:27:34;6.77;;;5.00;;
11267;SDS011;49397;47.474;9.416;2023-06-22T00:30:00;11.03;;;6.20;;
11267;SDS011;49397;47.474;9.416;2023-06-22T00:32:25;7.50;;;4.67;;
11267;SDS011;49397;47.474;9.416;2023-06-22T00:34:51;8.33;;;5.57;;
11267;SDS011;49397;47.474;9.416;2023-06-22T00:37:17;10.47;;;6.47;;
11267;SDS011;49397;47.474;9.416;2023-06-22T00:39:43;9.30;;;5.60;;
11267;SDS011;49397;47.474;9.416;2023-06-22T00:42:08;9.83;;;5.60;;
11267;SDS011;49397;47.474;9.416;2023-06-22T00:44:34;9.20;;;5.87;;
11267;SDS011;49397;47.474;9.416;2023-06-22T00:47:00;6.87;;;5.07;;
11267;SDS011;49397;47.474;9.416;2023-06-22T00:49:26;5.53;;;4.90;;
11267;SDS011;49397;47.474;9.416;2023-06-22T00:51:52;6.47;;;5.30;;
11267;SDS011;49397;47.474;9.416;2023-06-22T00:54:18;9.03;;;6.17;;
11267;SDS011;49397;47.474;9.416;2023-06-22T00:56:50;7.93;;;5.63;;
11267;SDS011;49397;47.474;9.416;2023-06-22T00:59:23;8.33;;;5.10;;
11267;SDS011;49397;47.474;9.416;2023-06-22T01:01:48;7.47;;;6.13;;
11267;SDS011;49397;47.474;9.416;2023-06-22T01:04:14;8.73;;;5.97;;
11267;SDS011;49397;47.474;9.416;2023-06-22T01:06:49;10.33;;;5.63;;
11267;SDS011;49397;47.474;9.416;2023-06-22T01:09:27;9.93;;;5.83;;
11267;SDS011;49397;47.474;9.416;2023-06-22T01:12:00;8.43;;;6.30;;
11267;SDS011;49397;47.474;9.416;2023-06-22T01:14:35;7.00;;;5.13;;
11267;SDS011;49397;47.474;9.416;2023-06-22T01:17:07;8.33;;;6.23;;
11267;SDS011;49397;47.474;9.416;2023-06-22T01:19:39;8.73;;;5.83;;
11267;SDS011;49397;47.474;9.416;2023-06-22T01:22:06;8.13;;;6.10;;
11267;SDS011;49397;47.474;9.416;2023-06-22T01:27:52;7.87;;;4.97;;
11267;SDS011;49397;47.474;9.416;2023-06-22T01:30:26;8.10;;;5.23;;
11267;SDS011;49397;47.474;9.416;2023-06-22T01:32:54;7.70;;;5.13;;
11267;SDS011;49397;47.474;9.416;2023-06-22T01:35:22;9.53;;;5.17;;
11267;SDS011;49397;47.474;9.416;2023-06-22T01:37:49;12.93;;;6.30;;
11267;SDS011;49397;47.474;9.416;2023-06-22T01:40:15;8.83;;;5.60;;
11267;SDS011;49397;47.474;9.416;2023-06-22T01:42:41;8.53;;;6.00;;
11267;SDS011;49397;47.474;9.416;2023-06-22T01:45:08;8.37;;;5.40;;
11267;SDS011;49397;47.474;9.416;2023-06-22T01:47:36;9.10;;;5.23;;
11267;SDS011;49397;47.474;9.416;2023-06-22T01:50:02;10.77;;;5.47;;
11267;SDS011;49397;47.474;9.416;2023-06-22T01:52:29;10.70;;;5.57;;
11267;SDS011;49397;47.474;9.416;2023-06-22T01:54:54;13.03;;;6.20;;
11267;SDS011;49397;47.474;9.416;2023-06-22T01:57:20;8.57;;;5.87;;
11267;SDS011;49397;47.474;9.416;2023-06-22T02:00:04;9.03;;;6.47;;
11267;SDS011;49397;47.474;9.416;2023-06-22T02:02:53;8.07;;;5.70;;
11267;SDS011;49397;47.474;9.416;2023-06-22T02:05:22;11.37;;;5.93;;
11267;SDS011;49397;47.474;9.416;2023-06-22T02:07:56;11.50;;;7.23;;
11267;SDS011;49397;47.474;9.416;2023-06-22T02:10:26;13.43;;;7.17;;
11267;SDS011;49397;47.474;9.416;2023-06-22T02:12:53;9.10;;;6.40;;
11267;SDS011;49397;47.474;9.416;2023-06-22T02:15:20;8.00;;;5.57;;
11267;SDS011;49397;47.474;9.416;2023-06-22T02:17:47;13.13;;;6.13;;
11267;SDS011;49397;47.474;9.416;2023-06-22T02:20:13;11.27;;;6.90;;
11267;SDS011;49397;47.474;9.416;2023-06-22T02:22:40;10.40;;;6.37;;
11267;SDS011;49397;47.474;9.416;2023-06-22T02:25:05;11.27;;;6.50;;
11267;SDS011;49397;47.474;9.416;2023-06-22T02:27:31;9.03;;;6.70;;
11267;SDS011;49397;47.474;9.416;2023-06-22T02:29:57;9.67;;;6.30;;
11267;SDS011;49397;47.474;9.416;2023-06-22T02:32:22;11.33;;;5.93;;
11267;SDS011;49397;47.474;9.416;2023-06-22T02:34:48;8.50;;;5.63;;
11267;SDS011;49397;47.474;9.416;2023-06-22T02:37:13;9.53;;;5.90;;
11267;SDS011;49397;47.474;9.416;2023-06-22T02:39:42;14.27;;;5.97;;
11267;SDS011;49397;47.474;9.416;2023-06-22T02:42:08;14.03;;;6.77;;
11267;SDS011;49397;47.474;9.416;2023-06-22T02:44:35;8.30;;;6.70;;
11267;SDS011;49397;47.474;9.416;2023-06-22T02:47:01;9.73;;;6.47;;
11267;SDS011;49397;47.474;9.416;2023-06-22T02:49:27;10.37;;;6.17;;
11267;SDS011;49397;47.474;9.416;2023-06-22T02:51:52;10.03;;;6.23;;
11267;SDS011;49397;47.474;9.416;2023-06-22T02:54:19;11.53;;;6.80;;
11267;SDS011;49397;47.474;9.416;2023-06-22T02:56:44;10.03;;;6.53;;
11267;SDS011;49397;47.474;9.416;2023-06-22T02:59:10;12.20;;;6.17;;
11267;SDS011;49397;47.474;9.416;2023-06-22T03:01:36;10.83;;;7.00;;
11267;SDS011;49397;47.474;9.416;2023-06-22T03:04:05;7.17;;;5.87;;
11267;SDS011;49397;47.474;9.416;2023-06-22T03:06:32;10.90;;;6.43;;
11267;SDS011;49397;47.474;9.416;2023-06-22T03:09:04;9.67;;;5.80;;
11267;SDS011;49397;47.474;9.416;2023-06-22T03:11:33;7.50;;;5.77;;
11267;SDS011;49397;47.474;9.416;2023-06-22T03:13:59;11.63;;;7.00;;
11267;SDS011;49397;47.474;9.416;2023-06-22T03:16:26;8.90;;;6.17;;
11267;SDS011;49397;47.474;9.416;2023-06-22T03:18:52;8.13;;;6.10;;
11267;SDS011;49397;47.474;9.416;2023-06-22T03:21:19;9.77;;;6.67;;
11267;SDS011;49397;47.474;9.416;2023-06-22T03:23:47;8.03;;;6.43;;
11267;SDS011;49397;47.474;9.416;2023-06-22T03:26:15;10.93;;;6.27;;
11267;SDS011;49397;47.474;9.416;2023-06-22T03:28:42;13.90;;;6.53;;
11267;SDS011;49397;47.474;9.416;2023-06-22T03:31:07;10.07;;;7.03;;
11267;SDS011;49397;47.474;9.416;2023-06-22T03:33:33;9.73;;;6.40;;
11267;SDS011;49397;47.474;9.416;2023-06-22T03:35:58;10.80;;;6.47;;
11267;SDS011;49397;47.474;9.416;2023-06-22T03:38:24;11.17;;;6.70;;
11267;SDS011;49397;47.474;9.416;2023-06-22T03:40:49;11.63;;;6.97;;
11267;SDS011;49397;47.474;9.416;2023-06-22T03:43:15;9.17;;;6.73;;
11267;SDS011;49397;47.474;9.416;2023-06-22T03:45:40;9.20;;;6.37;;
11267;SDS011;49397;47.474;9.416;2023-06-22T03:48:06;10.20;;;5.73;;
11267;SDS011;49397;47.474;9.416;2023-06-22T03:50:31;8.67;;;6.67;;
11267;SDS011;49397;47.474;9.416;2023-06-22T03:52:57;12.03;;;7.07;;
11267;SDS011;49397;47.474;9.416;2023-06-22T03:55:22;11.00;;;7.13;;
11267;SDS011;49397;47.474;9.416;2023-06-22T03:57:48;11.77;;;6.30;;
11267;SDS011;49397;47.474;9.416;2023-06-22T04:00:13;12.93;;;7.13;;
11267;SDS011;49397;47.474;9.416;2023-06-22T04:02:41;11.03;;;7.43;;
11267;SDS011;49397;47.474;9.416;2023-06-22T04:05:08;9.37;;;6.83;;
11267;SDS011;49397;47.474;9.416;2023-06-22T04:07:34;11.87;;;6.90;;
11267;SDS011;49397;47.474;9.416;2023-06-22T04:10:03;10.57;;;7.13;;
11267;SDS011;49397;47.474;9.416;2023-06-22T04:12:31;8.73;;;6.37;;
11267;SDS011;49397;47.474;9.416;2023-06-22T04:14:57;9.57;;;7.03;;
11267;SDS011;49397;47.474;9.416;2023-06-22T04:17:23;9.93;;;6.90;;
11267;SDS011;49397;47.474;9.416;2023-06-22T04:19:50;10.87;;;7.40;;
11267;SDS011;49397;47.474;9.416;2023-06-22T04:22:16;12.63;;;7.10;;
11267;SDS011;49397;47.474;9.416;2023-06-22T04:24:41;8.93;;;6.93;;
11267;SDS011;49397;47.474;9.416;2023-06-22T04:27:07;13.03;;;7.20;;
11267;SDS011;49397;47.474;9.416;2023-06-22T04:29:32;12.57;;;6.87;;
11267;SDS011;49397;47.474;9.416;2023-06-22T04:31:58;11.20;;;7.17;;
11267;SDS011;49397;47.474;9.416;2023-06-22T04:34:28;11.10;;;7.53;;
11267;SDS011;49397;47.474;9.416;2023-06-22T04:36:54;10.33;;;7.23;;
11267;SDS011;49397;47.474;9.416;2023-06-22T04:39:19;9.90;;;7.27;;
11267;SDS011;49397;47.474;9.416;2023-06-22T04:41:45;12.97;;;7.73;;
11267;SDS011;49397;47.474;9.416;2023-06-22T04:44:11;9.37;;;6.87;;
11267;SDS011;49397;47.474;9.416;2023-06-22T04:46:38;13.60;;;7.77;;
11267;SDS011;49397;47.474;9.416;2023-06-22T04:49:07;9.87;;;7.50;;
11267;SDS011;49397;47.474;9.416;2023-06-22T04:51:44;13.33;;;7.20;;
11267;SDS011;49397;47.474;9.416;2023-06-22T04:54:09;12.13;;;8.30;;
11267;SDS011;49397;47.474;9.416;2023-06-22T04:56:34;12.93;;;7.43;;
11267;SDS011;49397;47.474;9.416;2023-06-22T04:59:00;12.50;;;7.53;;
11267;SDS011;49397;47.474;9.416;2023-06-22T05:01:26;10.93;;;8.13;;
11267;SDS011;49397;47.474;9.416;2023-06-22T05:03:52;11.37;;;8.00;;
11267;SDS011;49397;47.474;9.416;2023-06-22T05:06:22;13.33;;;7.77;;
11267;SDS011;49397;47.474;9.416;2023-06-22T05:08:54;16.27;;;8.83;;
11267;SDS011;49397;47.474;9.416;2023-06-22T05:11:24;15.47;;;8.57;;
11267;SDS011;49397;47.474;9.416;2023-06-22T05:13:50;9.90;;;8.20;;
11267;SDS011;49397;47.474;9.416;2023-06-22T05:16:16;10.70;;;7.63;;
11267;SDS011;49397;47.474;9.416;2023-06-22T05:18:41;15.83;;;7.97;;
11267;SDS011;49397;47.474;9.416;2023-06-22T05:21:08;12.93;;;8.13;;
11267;SDS011;49397;47.474;9.416;2023-06-22T05:23:34;11.03;;;8.07;;
11267;SDS011;49397;47.474;9.416;2023-06-22T05:25:59;16.77;;;9.37;;
11267;SDS011;49397;47.474;9.416;2023-06-22T05:28:25;12.67;;;9.20;;
11267;SDS011;49397;47.474;9.416;2023-06-22T05:30:50;10.63;;;8.03;;
11267;SDS011;49397;47.474;9.416;2023-06-22T05:33:16;12.80;;;9.43;;
11267;SDS011;49397;47.474;9.416;2023-06-22T05:35:41;13.33;;;8.90;;
11267;SDS011;49397;47.474;9.416;2023-06-22T05:38:07;13.50;;;8.93;;
11267;SDS011;49397;47.474;9.416;2023-06-22T05:40:32;10.90;;;8.37;;
11267;SDS011;49397;47.474;9.416;2023-06-22T05:42:58;13.93;;;9.90;;
11267;SDS011;49397;47.474;9.416;2023-06-22T05:45:25;14.60;;;7.73;;
11267;SDS011;49397;47.474;9.416;2023-06-22T05:47:51;10.57;;;7.17;;
11267;SDS011;49397;47.474;9.416;2023-06-22T05:50:16;9.20;;;6.87;;
11267;SDS011;49397;47.474;9.416;2023-06-22T05:52:42;11.37;;;8.03;;
11267;SDS011;49397;47.474;9.416;2023-06-22T05:55:07;14.73;;;8.17;;
11267;SDS011;49397;47.474;9.416;2023-06-22T05:57:33;11.03;;;9.17;;
11267;SDS011;49397;47.474;9.416;2023-06-22T05:59:59;17.40;;;9.07;;
11267;SDS011;49397;47.474;9.416;2023-06-22T06:02:24;13.73;;;8.23;;
11267;SDS011;49397;47.474;9.416;2023-06-22T06:04:50;13.03;;;8.37;;
11267;SDS011;49397;47.474;9.416;2023-06-22T06:07:17;16.70;;;8.93;;
11267;SDS011;49397;47.474;9.416;2023-06-22T06:09:43;11.43;;;8.70;;
11267;SDS011;49397;47.474;9.416;2023-06-22T06:12:09;10.80;;;7.57;;
11267;SDS011;49397;47.474;9.416;2023-06-22T06:14:34;11.33;;;8.57;;
11267;SDS011;49397;47.474;9.416;2023-06-22T06:17:00;13.13;;;9.70;;
11267;SDS011;49397;47.474;9.416;2023-06-22T06:19:25;10.50;;;8.03;;
11267;SDS011;49397;47.474;9.416;2023-06-22T06:21:51;13.33;;;8.07;;
11267;SDS011;49397;47.474;9.416;2023-06-22T06:24:16;14.77;;;7.77;;
11267;SDS011;49397;47.474;9.416;2023-06-22T06:26:42;14.83;;;9.37;;
11267;SDS011;49397;47.474;9.416;2023-06-22T06:29:07;14.87;;;9.03;;
11267;SDS011;49397;47.474;9.416;2023-06-22T06:31:33;13.97;;;9.07;;
11267;SDS011;49397;47.474;9.416;2023-06-22T06:33:58;17.63;;;8.53;;
11267;SDS011;49397;47.474;9.416;2023-06-22T06:36:24;16.47;;;10.20;;
11267;SDS011;49397;47.474;9.416;2023-06-22T06:38:49;14.73;;;8.47;;
11267;SDS011;49397;47.474;9.416;2023-06-22T06:41:15;12.30;;;8.30;;
11267;SDS011;49397;47.474;9.416;2023-06-22T06:43:41;9.40;;;8.30;;
11267;SDS011;49397;47.474;9.416;2023-06-22T06:46:09;15.80;;;8.93;;
11267;SDS011;49397;47.474;9.416;2023-06-22T06:48:35;18.50;;;9.57;;
11267;SDS011;49397;47.474;9.416;2023-06-22T06:51:01;12.97;;;8.23;;
11267;SDS011;49397;47.474;9.416;2023-06-22T06:53:26;17.10;;;9.47;;
11267;SDS011;49397;47.474;9.416;2023-06-22T06:55:53;17.70;;;9.33;;
11267;SDS011;49397;47.474;9.416;2023-06-22T06:58:18;15.87;;;9.90;;
11267;SDS011;49397;47.474;9.416;2023-06-22T07:00:44;21.00;;;11.07;;
11267;SDS011;49397;47.474;9.416;2023-06-22T07:03:10;14.40;;;8.93;;
11267;SDS011;49397;47.474;9.416;2023-06-22T07:05:35;20.17;;;9.37;;
11267;SDS011;49397;47.474;9.416;2023-06-22T07:08:01;16.37;;;10.33;;
11267;SDS011;49397;47.474;9.416;2023-06-22T07:10:28;13.97;;;9.97;;
11267;SDS011;49397;47.474;9.416;2023-06-22T07:12:54;13.83;;;8.67;;
11267;SDS011;49397;47.474;9.416;2023-06-22T07:15:19;18.70;;;10.03;;
11267;SDS011;49397;47.474;9.416;2023-06-22T07:17:45;15.77;;;8.77;;
11267;SDS011;49397;47.474;9.416;2023-06-22T07:20:11;16.20;;;9.80;;
11267;SDS011;49397;47.474;9.416;2023-06-22T07:22:41;14.03;;;9.77;;
11267;SDS011;49397;47.474;9.416;2023-06-22T07:25:07;12.87;;;8.90;;
11267;SDS011;49397;47.474;9.416;2023-06-22T07:27:40;16.90;;;9.87;;
11267;SDS011;49397;47.474;9.416;2023-06-22T07:30:09;12.53;;;8.83;;
11267;SDS011;49397;47.474;9.416;2023-06-22T07:32:36;12.63;;;8.73;;
11267;SDS011;49397;47.474;9.416;2023-06-22T07:35:02;13.57;;;9.47;;
11267;SDS011;49397;47.474;9.416;2023-06-22T07:37:28;15.93;;;9.17;;
11267;SDS011;49397;47.474;9.416;2023-06-22T07:39:54;11.70;;;9.00;;
11267;SDS011;49397;47.474;9.416;2023-06-22T07:42:24;16.07;;;10.33;;
11267;SDS011;49397;47.474;9.416;2023-06-22T07:44:55;19.77;;;10.40;;
11267;SDS011;49397;47.474;9.416;2023-06-22T07:47:21;16.90;;;9.93;;
11267;SDS011;49397;47.474;9.416;2023-06-22T07:49:50;18.20;;;11.57;;
11267;SDS011;49397;47.474;9.416;2023-06-22T07:52:15;15.47;;;10.60;;
11267;SDS011;49397;47.474;9.416;2023-06-22T07:54:41;17.83;;;10.90;;
11267;SDS011;49397;47.474;9.416;2023-06-22T07:57:06;20.13;;;10.87;;
11267;SDS011;49397;47.474;9.416;2023-06-22T07:59:32;19.07;;;10.53;;
11267;SDS011;49397;47.474;9.416;2023-06-22T08:01:57;16.33;;;10.40;;
11267;SDS011;49397;47.474;9.416;2023-06-22T08:04:23;18.63;;;10.53;;
11267;SDS011;49397;47.474;9.416;2023-06-22T08:06:48;13.93;;;9.50;;
11267;SDS011;49397;47.474;9.416;2023-06-22T08:09:14;16.43;;;10.83;;
11267;SDS011;49397;47.474;9.416;2023-06-22T08:11:40;14.30;;;10.07;;
11267;SDS011;49397;47.474;9.416;2023-06-22T08:14:05;16.13;;;10.90;;
11267;SDS011;49397;47.474;9.416;2023-06-22T08:16:31;17.10;;;10.83;;
11267;SDS011;49397;47.474;9.416;2023-06-22T08:18:56;18.97;;;11.00;;
11267;SDS011;49397;47.474;9.416;2023-06-22T08:21:22;15.77;;;9.87;;
11267;SDS011;49397;47.474;9.416;2023-06-22T08:23:48;12.27;;;10.10;;
11267;SDS011;49397;47.474;9.416;2023-06-22T08:26:14;16.20;;;9.63;;
11267;SDS011;49397;47.474;9.416;2023-06-22T08:28:39;16.23;;;10.17;;
11267;SDS011;49397;47.474;9.416;2023-06-22T08:31:05;14.90;;;9.93;;
11267;SDS011;49397;47.474;9.416;2023-06-22T08:33:30;13.60;;;9.97;;
11267;SDS011;49397;47.474;9.416;2023-06-22T08:35:56;14.60;;;9.80;;
11267;SDS011;49397;47.474;9.416;2023-06-22T08:38:23;15.20;;;10.70;;
11267;SDS011;49397;47.474;9.416;2023-06-22T08:40:48;18.03;;;10.43;;
11267;SDS011;49397;47.474;9.416;2023-06-22T08:43:14;16.67;;;9.93;;
11267;SDS011;49397;47.474;9.416;2023-06-22T08:45:39;17.13;;;9.60;;
11267;SDS011;49397;47.474;9.416;2023-06-22T08:48:05;14.23;;;10.70;;
11267;SDS011;49397;47.474;9.416;2023-06-22T08:50:30;18.07;;;10.77;;
11267;SDS011;49397;47.474;9.416;2023-06-22T08:52:56;16.73;;;10.50;;
11267;SDS011;49397;47.474;9.416;2023-06-22T08:55:22;14.73;;;10.30;;
11267;SDS011;49397;47.474;9.416;2023-06-22T08:57:47;20.97;;;11.33;;
11267;SDS011;49397;47.474;9.416;2023-06-22T09:00:13;17.90;;;11.37;;
11267;SDS011;49397;47.474;9.416;2023-06-22T09:02:42;14.40;;;9.90;;
11267;SDS011;49397;47.474;9.416;2023-06-22T09:05:08;18.47;;;10.27;;
11267;SDS011;49397;47.474;9.416;2023-06-22T09:07:33;18.43;;;10.73;;
11267;SDS011;49397;47.474;9.416;2023-06-22T09:09:59;14.40;;;10.87;;
11267;SDS011;49397;47.474;9.416;2023-06-22T09:12:26;19.07;;;11.00;;
11267;SDS011;49397;47.474;9.416;2023-06-22T09:14:52;16.30;;;10.37;;
11267;SDS011;49397;47.474;9.416;2023-06-22T09:17:19;16.07;;;9.90;;
11267;SDS011;49397;47.474;9.416;2023-06-22T09:19:44;15.90;;;11.10;;
11267;SDS011;49397;47.474;9.416;2023-06-22T09:22:10;16.53;;;10.73;;
11267;SDS011;49397;47.474;9.416;2023-06-22T09:24:35;15.27;;;11.37;;
11267;SDS011;49397;47.474;9.416;2023-06-22T09:27:01;13.77;;;10.33;;
11267;SDS011;49397;47.474;9.416;2023-06-22T09:29:26;20.00;;;11.53;;
11267;SDS011;49397;47.474;9.416;2023-06-22T09:31:52;19.00;;;10.47;;
11267;SDS011;49397;47.474;9.416;2023-06-22T09:34:20;17.00;;;10.97;;
11267;SDS011;49397;47.474;9.416;2023-06-22T09:36:46;19.97;;;12.63;;
11267;SDS011;49397;47.474;9.416;2023-06-22T09:39:12;19.07;;;10.53;;
11267;SDS011;49397;47.474;9.416;2023-06-22T09:41:37;16.77;;;11.40;;
11267;SDS011;49397;47.474;9.416;2023-06-22T09:44:03;16.07;;;9.87;;
11267;SDS011;49397;47.474;9.416;2023-06-22T09:46:28;19.80;;;10.97;;
11267;SDS011;49397;47.474;9.416;2023-06-22T09:48:54;16.23;;;9.60;;
11267;SDS011;49397;47.474;9.416;2023-06-22T09:51:19;18.30;;;9.70;;
11267;SDS011;49397;47.474;9.416;2023-06-22T09:53:47;17.20;;;9.80;;
11267;SDS011;49397;47.474;9.416;2023-06-22T09:56:12;12.63;;;8.60;;
11267;SDS011;49397;47.474;9.416;2023-06-22T09:58:43;14.07;;;9.80;;
11267;SDS011;49397;47.474;9.416;2023-06-22T10:01:09;20.10;;;10.67;;
11267;SDS011;49397;47.474;9.416;2023-06-22T10:03:35;15.67;;;10.03;;
11267;SDS011;49397;47.474;9.416;2023-06-22T10:06:01;12.53;;;9.47;;
11267;SDS011;49397;47.474;9.416;2023-06-22T10:08:27;17.83;;;9.00;;
11267;SDS011;49397;47.474;9.416;2023-06-22T10:10:53;15.97;;;10.83;;
11267;SDS011;49397;47.474;9.416;2023-06-22T10:13:18;15.98;;;10.32;;
11267;SDS011;49397;47.474;9.416;2023-06-22T10:15:44;14.98;;;10.60;;
11267;SDS011;49397;47.474;9.416;2023-06-22T10:18:16;18.23;;;9.57;;
11267;SDS011;49397;47.474;9.416;2023-06-22T10:20:42;15.30;;;9.18;;
11267;SDS011;49397;47.474;9.416;2023-06-22T10:23:07;13.73;;;9.57;;
11267;SDS011;49397;47.474;9.416;2023-06-22T10:25:33;19.90;;;10.60;;
11267;SDS011;49397;47.474;9.416;2023-06-22T10:27:58;15.80;;;11.00;;
11267;SDS011;49397;47.474;9.416;2023-06-22T10:30:24;20.37;;;12.30;;
11267;SDS011;49397;47.474;9.416;2023-06-22T10:32:49;17.07;;;10.40;;
11267;SDS011;49397;47.474;9.416;2023-06-22T10:35:15;14.27;;;10.57;;
11267;SDS011;49397;47.474;9.416;2023-06-22T10:37:44;18.23;;;10.93;;
11267;SDS011;49397;47.474;9.416;2023-06-22T10:40:13;17.57;;;11.90;;
11267;SDS011;49397;47.474;9.416;2023-06-22T10:42:40;15.43;;;10.77;;
11267;SDS011;49397;47.474;9.416;2023-06-22T10:45:06;15.93;;;11.50;;
11267;SDS011;49397;47.474;9.416;2023-06-22T10:47:33;19.00;;;11.87;;
11267;SDS011;49397;47.474;9.416;2023-06-22T10:49:59;17.17;;;13.17;;
11267;SDS011;49397;47.474;9.416;2023-06-22T10:52:24;17.33;;;10.97;;
11267;SDS011;49397;47.474;9.416;2023-06-22T10:54:50;19.77;;;11.57;;
11267;SDS011;49397;47.474;9.416;2023-06-22T10:57:15;20.50;;;11.50;;
11267;SDS011;49397;47.474;9.416;2023-06-22T10:59:41;18.13;;;12.03;;
11267;SDS011;49397;47.474;9.416;2023-06-22T11:02:06;18.40;;;11.93;;
11267;SDS011;49397;47.474;9.416;2023-06-22T11:04:32;16.73;;;11.20;;
11267;SDS011;49397;47.474;9.416;2023-06-22T11:06:57;17.55;;;10.90;;
11267;SDS011;49397;47.474;9.416;2023-06-22T11:09:23;20.53;;;13.23;;
11267;SDS011;49397;47.474;9.416;2023-06-22T11:11:48;19.97;;;11.00;;
11267;SDS011;49397;47.474;9.416;2023-06-22T11:14:15;17.10;;;10.73;;
11267;SDS011;49397;47.474;9.416;2023-06-22T11:16:41;19.43;;;10.23;;
11267;SDS011;49397;47.474;9.416;2023-06-22T11:19:06;22.05;;;11.68;;
11267;SDS011;49397;47.474;9.416;2023-06-22T11:21:32;17.48;;;12.13;;
11267;SDS011;49397;47.474;9.416;2023-06-22T11:23:58;20.40;;;12.85;;
11267;SDS011;49397;47.474;9.416;2023-06-22T11:26:24;22.90;;;11.40;;
11267;SDS011;49397;47.474;9.416;2023-06-22T11:28:52;18.17;;;12.80;;
11267;SDS011;49397;47.474;9.416;2023-06-22T11:31:18;16.45;;;11.13;;
11267;SDS011;49397;47.474;9.416;2023-06-22T11:33:43;17.50;;;10.82;;
11267;SDS011;49397;47.474;9.416;2023-06-22T11:36:11;16.55;;;12.18;;
11267;SDS011;49397;47.474;9.416;2023-06-22T11:38:37;29.65;;;13.40;;
11267;SDS011;49397;47.474;9.416;2023-06-22T11:41:05;20.65;;;12.68;;
11267;SDS011;49397;47.474;9.416;2023-06-22T11:43:34;17.45;;;11.52;;
11267;SDS011;49397;47.474;9.416;2023-06-22T11:46:01;22.77;;;12.55;;
11267;SDS011;49397;47.474;9.416;2023-06-22T11:48:29;20.40;;;11.57;;
11267;SDS011;49397;47.474;9.416;2023-06-22T11:50:55;22.60;;;12.77;;
11267;SDS011;49397;47.474;9.416;2023-06-22T11:53:21;16.98;;;12.65;;
11267;SDS011;49397;47.474;9.416;2023-06-22T11:55:49;16.90;;;11.75;;
11267;SDS011;49397;47.474;9.416;2023-06-22T11:58:15;18.10;;;12.70;;
11267;SDS011;49397;47.474;9.416;2023-06-22T12:00:40;21.70;;;13.60;;
11267;SDS011;49397;47.474;9.416;2023-06-22T12:03:06;24.50;;;13.87;;
11267;SDS011;49397;47.474;9.416;2023-06-22T12:05:33;25.43;;;14.13;;
11267;SDS011;49397;47.474;9.416;2023-06-22T12:07:58;24.97;;;13.13;;
11267;SDS011;49397;47.474;9.416;2023-06-22T12:10:25;22.93;;;13.30;;
11267;SDS011;49397;47.474;9.416;2023-06-22T12:12:51;19.10;;;12.73;;
11267;SDS011;49397;47.474;9.416;2023-06-22T12:15:17;16.70;;;12.83;;
11267;SDS011;49397;47.474;9.416;2023-06-22T12:17:42;23.10;;;13.67;;
11267;SDS011;49397;47.474;9.416;2023-06-22T12:20:08;20.33;;;13.37;;
11267;SDS011;49397;47.474;9.416;2023-06-22T12:22:34;29.83;;;15.40;;
11267;SDS011;49397;47.474;9.416;2023-06-22T12:25:00;24.20;;;15.40;;
11267;SDS011;49397;47.474;9.416;2023-06-22T12:27:26;18.63;;;12.93;;
11267;SDS011;49397;47.474;9.416;2023-06-22T12:29:52;27.10;;;15.77;;
11267;SDS011;49397;47.474;9.416;2023-06-22T12:32:17;23.53;;;14.80;;
11267;SDS011;49397;47.474;9.416;2023-06-22T12:34:43;23.30;;;15.70;;
11267;SDS011;49397;47.474;9.416;2023-06-22T12:37:10;26.97;;;16.27;;
11267;SDS011;49397;47.474;9.416;2023-06-22T12:39:36;26.80;;;15.37;;
11267;SDS011;49397;47.474;9.416;2023-06-22T12:42:01;23.60;;;14.83;;
11267;SDS011;49397;47.474;9.416;2023-06-22T12:44:27;27.27;;;16.57;;
11267;SDS011;49397;47.474;9.416;2023-06-22T12:46:52;24.37;;;16.17;;
11267;SDS011;49397;47.474;9.416;2023-06-22T12:49:18;23.87;;;16.30;;
11267;SDS011;49397;47.474;9.416;2023-06-22T12:51:43;23.20;;;14.47;;
11267;SDS011;49397;47.474;9.416;2023-06-22T12:54:10;26.70;;;17.53;;
11267;SDS011;49397;47.474;9.416;2023-06-22T12:56:36;28.27;;;16.73;;
11267;SDS011;49397;47.474;9.416;2023-06-22T12:59:03;28.63;;;16.00;;
11267;SDS011;49397;47.474;9.416;2023-06-22T13:01:30;25.20;;;16.57;;
11267;SDS011;49397;47.474;9.416;2023-06-22T13:03:57;28.93;;;15.70;;
11267;SDS011;49397;47.474;9.416;2023-06-22T13:06:23;26.83;;;16.80;;
11267;SDS011;49397;47.474;9.416;2023-06-22T13:08:49;23.80;;;15.18;;
11267;SDS011;49397;47.474;9.416;2023-06-22T13:11:14;19.30;;;14.02;;
11267;SDS011;49397;47.474;9.416;2023-06-22T13:13:40;22.10;;;14.63;;
11267;SDS011;49397;47.474;9.416;2023-06-22T13:16:05;19.05;;;12.52;;
11267;SDS011;49397;47.474;9.416;2023-06-22T13:18:31;19.63;;;12.45;;
11267;SDS011;49397;47.474;9.416;2023-06-22T13:20:58;25.07;;;14.60;;
11267;SDS011;49397;47.474;9.416;2023-06-22T13:23:25;24.38;;;16.10;;
11267;SDS011;49397;47.474;9.416;2023-06-22T13:25:51;28.05;;;14.85;;
11267;SDS011;49397;47.474;9.416;2023-06-22T13:28:16;28.67;;;15.63;;
11267;SDS011;49397;47.474;9.416;2023-06-22T13:30:42;28.42;;;16.90;;
11267;SDS011;49397;47.474;9.416;2023-06-22T13:33:11;28.70;;;16.02;;
11267;SDS011;49397;47.474;9.416;2023-06-22T13:35:36;26.02;;;14.75;;
11267;SDS011;49397;47.474;9.416;2023-06-22T13:38:03;23.20;;;13.25;;
11267;SDS011;49397;47.474;9.416;2023-06-22T13:40:29;19.63;;;13.25;;
11267;SDS011;49397;47.474;9.416;2023-06-22T13:42:55;20.30;;;13.23;;
11267;SDS011;49397;47.474;9.416;2023-06-22T13:45:20;20.05;;;13.85;;
11267;SDS011;49397;47.474;9.416;2023-06-22T13:47:46;23.70;;;15.20;;
11267;SDS011;49397;47.474;9.416;2023-06-22T13:50:12;21.65;;;14.65;;
11267;SDS011;49397;47.474;9.416;2023-06-22T13:52:38;27.63;;;13.95;;
11267;SDS011;49397;47.474;9.416;2023-06-22T13:55:04;22.25;;;13.50;;
11267;SDS011;49397;47.474;9.416;2023-06-22T13:57:32;20.33;;;12.98;;
11267;SDS011;49397;47.474;9.416;2023-06-22T13:59:58;18.23;;;12.48;;
11267;SDS011;49397;47.474;9.416;2023-06-22T14:02:25;22.55;;;13.05;;
11267;SDS011;49397;47.474;9.416;2023-06-22T14:04:51;20.77;;;11.65;;
11267;SDS011;49397;47.474;9.416;2023-06-22T14:07:17;18.27;;;11.65;;
11267;SDS011;49397;47.474;9.416;2023-06-22T14:09:44;22.63;;;12.65;;
11267;SDS011;49397;47.474;9.416;2023-06-22T14:12:10;18.70;;;10.43;;
11267;SDS011;49397;47.474;9.416;2023-06-22T14:14:36;15.95;;;10.35;;
11267;SDS011;49397;47.474;9.416;2023-06-22T14:17:01;15.82;;;11.20;;
11267;SDS011;49397;47.474;9.416;2023-06-22T14:19:27;15.32;;;10.35;;
11267;SDS011;49397;47.474;9.416;2023-06-22T14:21:52;21.90;;;11.27;;
11267;SDS011;49397;47.474;9.416;2023-06-22T14:24:18;15.48;;;9.38;;
11267;SDS011;49397;47.474;9.416;2023-06-22T14:26:43;18.83;;;9.93;;
11267;SDS011;49397;47.474;9.416;2023-06-22T14:29:09;19.23;;;10.38;;